createdAt,value
2022-08-01T00:01:17.658Z,100756.38
2022-08-01T00:03:45.532Z,100756.28
2022-08-01T00:06:14.843Z,100760.66
2022-08-01T00:08:42.680Z,100762.25
2022-08-01T00:11:11.087Z,100765.72
2022-08-01T00:13:38.960Z,100768.31
2022-08-01T00:16:06.861Z,100771.47
2022-08-01T00:18:35.509Z,100769.47
2022-08-01T00:21:03.607Z,100766.44
2022-08-01T00:23:33.221Z,100768.47
2022-08-01T00:26:01.215Z,100758.94
2022-08-01T00:28:29.366Z,100752.09
2022-08-01T00:30:57.283Z,100767.28
2022-08-01T00:33:25.376Z,100771.16
2022-08-01T00:35:53.294Z,100765.72
2022-08-01T00:38:21.342Z,100767.50
2022-08-01T00:40:52.134Z,100767.47
2022-08-01T00:43:20.103Z,100755.88
2022-08-01T00:45:48.121Z,100764.31
2022-08-01T00:48:15.959Z,100755.81
2022-08-01T00:50:43.929Z,100759.03
2022-08-01T00:53:18.927Z,100761.63
2022-08-01T00:55:47.242Z,100753.03
2022-08-01T00:58:16.718Z,100754.25
2022-08-01T01:00:52.226Z,100749.72
2022-08-01T01:03:26.329Z,100748.00
2022-08-01T01:06:23.402Z,100739.28
2022-08-01T01:09:09.071Z,100743.88
2022-08-01T01:11:47.212Z,100748.09
2022-08-01T01:14:32.684Z,100744.78
2022-08-01T01:17:03.634Z,100753.97
2022-08-01T01:19:40.613Z,100744.47
2022-08-01T01:22:26.235Z,100746.00
2022-08-01T01:25:21.007Z,100743.75
2022-08-01T01:28:03.964Z,100731.75
2022-08-01T01:30:35.625Z,100736.50
2022-08-01T01:33:10.897Z,100733.06
2022-08-01T01:35:46.209Z,100724.91
2022-08-01T01:38:20.716Z,100732.16
2022-08-01T01:40:50.795Z,100729.19
2022-08-01T01:43:20.756Z,100726.22
2022-08-01T01:45:52.893Z,100730.22
2022-08-01T01:48:26.086Z,100734.78
2022-08-01T01:50:55.533Z,100725.78
2022-08-01T01:53:25.391Z,100725.50
2022-08-01T01:55:56.232Z,100729.84
2022-08-01T01:58:26.311Z,100731.34
2022-08-01T02:01:02.702Z,100717.69
2022-08-01T02:03:33.520Z,100724.63
2022-08-01T02:06:03.912Z,100726.03
2022-08-01T02:08:34.545Z,100724.34
2022-08-01T02:11:20.252Z,100733.47
2022-08-01T02:13:55.245Z,100740.38
2022-08-01T02:16:29.265Z,100733.28
2022-08-01T02:18:57.639Z,100739.09
2022-08-01T02:21:31.801Z,100734.00
2022-08-01T02:24:15.158Z,100730.97
2022-08-01T02:26:49.597Z,100738.06
2022-08-01T02:29:24.571Z,100729.94
2022-08-01T02:31:56.682Z,100731.66
2022-08-01T02:34:32.946Z,100730.75
2022-08-01T02:37:02.718Z,100729.78
2022-08-01T02:39:34.151Z,100737.50
2022-08-01T02:42:09.778Z,100736.69
2022-08-01T02:44:43.837Z,100736.13
2022-08-01T02:47:13.784Z,100733.97
2022-08-01T02:49:53.703Z,100728.97
2022-08-01T02:52:26.695Z,100734.81
2022-08-01T02:54:58.921Z,100729.66
2022-08-01T02:57:32.806Z,100733.88
2022-08-01T03:00:19.350Z,100736.50
2022-08-01T03:02:56.273Z,100734.91
2022-08-01T03:05:27.804Z,100736.47
2022-08-01T03:08:02.511Z,100737.22
2022-08-01T03:10:35.327Z,100729.16
2022-08-01T03:13:06.817Z,100740.72
2022-08-01T03:15:39.380Z,100738.22
2022-08-01T03:18:13.433Z,100737.03
2022-08-01T03:20:45.592Z,100735.84
2022-08-01T03:23:16.143Z,100734.78
2022-08-01T03:25:47.131Z,100736.91
2022-08-01T03:28:18.831Z,100742.75
2022-08-01T03:30:49.404Z,100743.88
2022-08-01T03:33:19.206Z,100747.91
2022-08-01T03:35:54.562Z,100747.94
2022-08-01T03:38:27.474Z,100745.34
2022-08-01T03:41:04.805Z,100749.97
2022-08-01T03:43:37.871Z,100754.97
2022-08-01T03:46:11.290Z,100746.38
2022-08-01T03:48:49.663Z,100756.97
2022-08-01T03:51:20.295Z,100754.31
2022-08-01T03:53:51.720Z,100762.34
2022-08-01T03:56:22.725Z,100753.91
2022-08-01T03:58:52.406Z,100756.97
2022-08-01T04:01:21.147Z,100758.81
2022-08-01T04:03:50.807Z,100757.50
2022-08-01T04:06:18.863Z,100759.84
2022-08-01T04:08:56.301Z,100754.38
2022-08-01T04:11:26.796Z,100759.78
2022-08-01T04:13:56.161Z,100756.41
2022-08-01T04:16:25.795Z,100759.78
2022-08-01T04:18:55.087Z,100754.72
2022-08-01T04:21:28.635Z,100756.19
2022-08-01T04:24:01.957Z,100756.94
2022-08-01T04:26:33.074Z,100760.72
2022-08-01T04:29:05.852Z,100760.88
2022-08-01T04:31:35.130Z,100763.84
2022-08-01T04:34:07.631Z,100767.47
2022-08-01T04:36:39.955Z,100770.56
2022-08-01T04:39:08.991Z,100769.72
2022-08-01T04:41:38.725Z,100771.38
2022-08-01T04:44:07.796Z,100773.44
2022-08-01T04:46:38.726Z,100770.56
2022-08-01T04:49:10.180Z,100778.41
2022-08-01T04:51:38.042Z,100775.13
2022-08-01T04:54:08.328Z,100780.38
2022-08-01T04:56:36.144Z,100782.97
2022-08-01T04:59:21.689Z,100792.16
2022-08-01T05:01:52.701Z,100787.84
2022-08-01T05:04:21.951Z,100778.59
2022-08-01T05:06:49.924Z,100781.53
2022-08-01T05:09:17.884Z,100786.13
2022-08-01T05:11:45.767Z,100792.91
2022-08-01T05:14:13.617Z,100788.38
2022-08-01T05:16:42.749Z,100790.34
2022-08-01T05:19:11.177Z,100794.31
2022-08-01T05:21:40.371Z,100790.59
2022-08-01T05:24:08.651Z,100792.66
2022-08-01T05:26:36.733Z,100789.66
2022-08-01T05:29:09.207Z,100790.34
2022-08-01T05:31:42.094Z,100788.63
2022-08-01T05:34:15.590Z,100792.50
2022-08-01T05:36:46.433Z,100787.59
2022-08-01T05:39:34.034Z,100796.94
2022-08-01T05:42:07.594Z,100787.81
2022-08-01T05:44:39.165Z,100793.53
2022-08-01T05:47:11.974Z,100795.69
2022-08-01T05:49:39.823Z,100795.47
2022-08-01T05:52:09.513Z,100797.06
2022-08-01T05:54:37.532Z,100803.97
2022-08-01T05:57:05.793Z,100809.53
2022-08-01T05:59:33.920Z,100806.66
2022-08-01T06:02:02.120Z,100813.63
2022-08-01T06:04:30.238Z,100811.66
2022-08-01T06:06:58.020Z,100808.47
2022-08-01T06:09:27.263Z,100816.69
2022-08-01T06:11:55.108Z,100809.78
2022-08-01T06:14:22.906Z,100808.97
2022-08-01T06:16:50.728Z,100819.88
2022-08-01T06:19:18.561Z,100817.09
2022-08-01T06:21:46.399Z,100819.81
2022-08-01T06:24:14.553Z,100821.31
2022-08-01T06:26:43.697Z,100827.19
2022-08-01T06:29:11.493Z,100827.25
2022-08-01T06:31:40.177Z,100813.34
2022-08-01T06:34:07.972Z,100807.69
2022-08-01T06:36:35.784Z,100830.19
2022-08-01T06:39:03.755Z,100828.81
2022-08-01T06:41:31.580Z,100827.19
2022-08-01T06:44:03.280Z,100815.47
2022-08-01T06:46:32.549Z,100818.94
2022-08-01T06:49:02.904Z,100825.25
2022-08-01T06:51:30.790Z,100832.69
2022-08-01T06:53:58.664Z,100828.53
2022-08-01T06:56:26.465Z,100827.38
2022-08-01T06:58:57.237Z,100823.28
2022-08-01T07:01:26.393Z,100824.16
2022-08-01T07:03:55.149Z,100831.75
2022-08-01T07:06:24.867Z,100831.25
2022-08-01T07:08:53.303Z,100831.97
2022-08-01T07:11:21.788Z,100834.03
2022-08-01T07:13:49.702Z,100833.88
2022-08-01T07:16:19.087Z,100841.63
2022-08-01T07:18:48.279Z,100845.44
2022-08-01T07:21:38.518Z,100833.19
2022-08-01T07:24:09.258Z,100835.66
2022-08-01T07:26:52.406Z,100835.50
2022-08-01T07:29:24.152Z,100846.75
2022-08-01T07:31:52.281Z,100840.75
2022-08-01T07:34:21.669Z,100837.53
2022-08-01T07:36:49.779Z,100833.91
2022-08-01T07:39:17.597Z,100830.94
2022-08-01T07:42:06.177Z,100829.38
2022-08-01T07:44:33.306Z,100845.78
2022-08-01T07:47:01.135Z,100846.75
2022-08-01T07:49:30.524Z,100850.53
2022-08-01T07:52:02.691Z,100846.84
2022-08-01T07:54:33.946Z,100859.06
2022-08-01T07:57:02.442Z,100857.00
2022-08-01T07:59:30.322Z,100868.13
2022-08-01T08:01:58.344Z,100870.25
2022-08-01T08:04:26.297Z,100875.50
2022-08-01T08:06:55.511Z,100878.13
2022-08-01T08:09:23.870Z,100875.91
2022-08-01T08:11:52.213Z,100874.88
2022-08-01T08:14:20.567Z,100870.31
2022-08-01T08:16:48.808Z,100865.56
2022-08-01T08:19:16.727Z,100864.41
2022-08-01T08:21:45.264Z,100871.59
2022-08-01T08:24:26.458Z,100873.78
2022-08-01T08:26:58.697Z,100874.78
2022-08-01T08:29:28.554Z,100880.31
2022-08-01T08:31:57.021Z,100886.13
2022-08-01T08:34:26.323Z,100868.81
2022-08-01T08:36:55.572Z,100874.31
2022-08-01T08:39:25.438Z,100878.53
2022-08-01T08:41:53.264Z,100872.69
2022-08-01T08:44:22.052Z,100879.19
2022-08-01T08:46:52.892Z,100880.56
2022-08-01T08:49:25.379Z,100882.66
2022-08-01T08:51:55.581Z,100887.03
2022-08-01T08:54:31.137Z,100875.25
2022-08-01T08:57:01.979Z,100873.44
2022-08-01T08:59:30.912Z,100874.19
2022-08-01T09:02:00.174Z,100873.06
2022-08-01T09:04:28.496Z,100872.53
2022-08-01T09:06:56.674Z,100874.84
2022-08-01T09:09:25.929Z,100878.03
2022-08-01T09:11:57.773Z,100883.59
2022-08-01T09:14:30.963Z,100893.88
2022-08-01T09:17:07.533Z,100889.97
2022-08-01T09:19:41.892Z,100895.22
2022-08-01T09:22:12.966Z,100897.69
2022-08-01T09:24:43.384Z,100900.22
2022-08-01T09:27:24.655Z,100903.78
2022-08-01T09:30:01.075Z,100904.84
2022-08-01T09:32:38.501Z,100902.69
2022-08-01T09:35:30.262Z,100908.81
2022-08-01T09:38:16.466Z,100910.19
2022-08-01T09:40:55.561Z,100914.75
2022-08-01T09:43:27.123Z,100919.34
2022-08-01T09:45:57.947Z,100917.81
2022-08-01T09:48:29.787Z,100920.72
2022-08-01T09:51:04.723Z,100930.41
2022-08-01T09:53:51.840Z,100928.81
2022-08-01T09:56:24.159Z,100932.91
2022-08-01T09:59:01.129Z,100933.28
2022-08-01T10:01:37.484Z,100932.16
2022-08-01T10:04:13.512Z,100935.94
2022-08-01T10:06:46.192Z,100939.34
2022-08-01T10:09:16.200Z,100939.63
2022-08-01T10:11:45.923Z,100942.56
2022-08-01T10:14:18.291Z,100940.22
2022-08-01T10:16:53.723Z,100949.47
2022-08-01T10:19:34.342Z,100954.94
2022-08-01T10:22:06.559Z,100957.06
2022-08-01T10:24:40.927Z,100952.91
2022-08-01T10:27:12.981Z,100958.91
2022-08-01T10:30:05.552Z,100959.09
2022-08-01T10:32:39.577Z,100960.03
2022-08-01T10:35:15.177Z,100954.53
2022-08-01T10:37:52.205Z,100960.53
2022-08-01T10:40:30.346Z,100949.91
2022-08-01T10:43:01.474Z,100960.16
2022-08-01T10:45:30.795Z,100954.69
2022-08-01T10:48:07.957Z,100966.88
2022-08-01T10:50:48.397Z,100959.00
2022-08-01T10:53:23.885Z,100951.16
2022-08-01T10:56:06.597Z,100959.72
2022-08-01T10:58:42.199Z,100968.16
2022-08-01T11:01:26.221Z,100966.53
2022-08-01T11:04:11.430Z,100955.31
2022-08-01T11:06:55.349Z,100963.59
2022-08-01T11:09:37.407Z,100957.00
2022-08-01T11:12:13.659Z,100965.03
2022-08-01T11:15:29.162Z,100969.38
2022-08-01T11:18:01.680Z,100982.31
2022-08-01T11:20:33.775Z,100991.19
2022-08-01T11:23:36.198Z,100992.47
2022-08-01T11:26:14.160Z,101002.41
2022-08-01T11:29:05.039Z,101000.88
2022-08-01T11:31:38.336Z,101000.69
2022-08-01T11:34:06.816Z,101009.78
2022-08-01T11:36:58.220Z,101010.09
2022-08-01T11:39:22.815Z,101006.56
2022-08-01T11:41:51.197Z,101010.00
2022-08-01T11:44:26.374Z,101005.72
2022-08-01T11:47:09.853Z,101010.41
2022-08-01T11:49:56.095Z,101008.84
2022-08-01T11:52:29.519Z,101007.50
2022-08-01T11:54:59.945Z,100999.41
2022-08-01T11:57:34.180Z,101003.47
2022-08-01T12:00:16.983Z,100995.91
2022-08-01T12:02:49.146Z,100990.06
2022-08-01T12:05:24.523Z,100997.22
2022-08-01T12:07:55.974Z,100988.84
2022-08-01T12:10:26.699Z,100991.63
2022-08-01T12:12:57.765Z,100987.41
2022-08-01T12:15:30.931Z,100987.44
2022-08-01T12:18:02.563Z,100980.06
2022-08-01T12:20:33.765Z,100985.00
2022-08-01T12:23:09.277Z,100989.13
2022-08-01T12:25:37.857Z,100996.34
2022-08-01T12:28:08.359Z,100992.69
2022-08-01T12:30:37.940Z,100991.19
2022-08-01T12:33:09.681Z,100993.91
2022-08-01T12:35:40.303Z,100985.91
2022-08-01T12:38:17.482Z,100990.97
2022-08-01T12:40:52.945Z,100985.03
2022-08-01T12:43:28.157Z,100987.41
2022-08-01T12:46:01.159Z,100981.28
2022-08-01T12:48:33.416Z,100988.19
2022-08-01T12:51:05.026Z,100985.75
2022-08-01T12:53:39.738Z,100983.38
2022-08-01T12:56:10.539Z,100974.66
2022-08-01T12:58:38.630Z,100980.88
2022-08-01T13:01:09.070Z,100980.91
2022-08-01T13:03:38.674Z,100978.94
2022-08-01T13:06:15.471Z,100994.66
2022-08-01T13:08:44.009Z,100990.25
2022-08-01T13:11:16.401Z,100997.28
2022-08-01T13:13:48.236Z,100989.91
2022-08-01T13:16:27.844Z,100999.22
2022-08-01T13:19:03.790Z,100992.75
2022-08-01T13:21:34.669Z,100992.47
2022-08-01T13:24:27.800Z,101002.72
2022-08-01T13:26:59.827Z,100992.28
2022-08-01T13:29:38.934Z,100993.06
2022-08-01T13:32:28.303Z,100993.13
2022-08-01T13:35:05.949Z,100998.69
2022-08-01T13:37:34.332Z,101003.59
2022-08-01T13:40:02.494Z,101004.78
2022-08-01T13:42:31.085Z,101007.28
2022-08-01T13:44:59.786Z,101009.00
2022-08-01T13:47:32.088Z,101001.56
2022-08-01T13:50:01.601Z,101013.88
2022-08-01T13:52:31.860Z,101003.03
2022-08-01T13:55:00.312Z,101011.25
2022-08-01T13:57:36.297Z,101003.47
2022-08-01T14:00:07.590Z,100998.47
2022-08-01T14:02:35.855Z,101009.88
2022-08-01T14:05:03.938Z,101000.31
2022-08-01T14:07:33.099Z,101003.50
2022-08-01T14:10:04.932Z,101012.28
2022-08-01T14:12:46.946Z,101007.69
2022-08-01T14:15:16.770Z,101009.69
2022-08-01T14:18:04.045Z,101006.56
2022-08-01T14:20:34.375Z,101014.28
2022-08-01T14:23:03.818Z,101022.94
2022-08-01T14:26:00.361Z,101023.81
2022-08-01T14:28:25.142Z,101021.81
2022-08-01T14:30:53.159Z,101034.56
2022-08-01T14:33:20.931Z,101030.69
2022-08-01T14:36:01.920Z,101016.00
2022-08-01T14:38:36.077Z,101015.47
2022-08-01T14:41:04.795Z,101021.84
2022-08-01T14:43:34.086Z,101027.72
2022-08-01T14:46:04.448Z,101028.63
2022-08-01T14:48:33.142Z,101027.56
2022-08-01T14:51:03.856Z,101029.97
2022-08-01T14:53:33.613Z,101037.09
2022-08-01T14:56:05.770Z,101032.25
2022-08-01T14:58:34.104Z,101044.75
2022-08-01T15:01:02.294Z,101054.97
2022-08-01T15:03:30.515Z,101057.94
2022-08-01T15:05:58.302Z,101056.97
2022-08-01T15:08:26.163Z,101059.91
2022-08-01T15:10:54.365Z,101064.59
2022-08-01T15:13:23.509Z,101064.47
2022-08-01T15:15:51.331Z,101070.84
2022-08-01T15:18:19.119Z,101066.97
2022-08-01T15:20:47.188Z,101066.59
2022-08-01T15:23:15.335Z,101064.75
2022-08-01T15:25:43.207Z,101069.16
2022-08-01T15:28:12.115Z,101062.81
2022-08-01T15:30:41.719Z,101075.34
2022-08-01T15:33:09.712Z,101071.53
2022-08-01T15:35:37.618Z,101070.00
2022-08-01T15:38:05.452Z,101071.56
2022-08-01T15:40:35.564Z,101072.56
2022-08-01T15:43:03.721Z,101069.69
2022-08-01T15:45:46.810Z,101076.84
2022-08-01T15:48:16.916Z,101076.25
2022-08-01T15:50:45.020Z,101074.63
2022-08-01T15:53:13.145Z,101075.88
2022-08-01T15:55:41.095Z,101071.59
2022-08-01T15:58:11.499Z,101075.63
2022-08-01T16:00:40.477Z,101074.06
2022-08-01T16:03:10.212Z,101081.38
2022-08-01T16:05:43.377Z,101076.78
2022-08-01T16:08:12.803Z,101078.75
2022-08-01T16:10:40.802Z,101072.03
2022-08-01T16:13:08.633Z,101078.13
2022-08-01T16:15:38.176Z,101081.44
2022-08-01T16:18:07.858Z,101070.59
2022-08-01T16:20:39.070Z,101081.69
2022-08-01T16:23:12.156Z,101076.84
2022-08-01T16:25:40.276Z,101079.47
2022-08-01T16:28:09.795Z,101084.66
2022-08-01T16:30:37.683Z,101076.94
2022-08-01T16:33:45.203Z,101077.38
2022-08-01T16:36:06.660Z,101075.25
2022-08-01T16:38:36.064Z,101071.91
2022-08-01T16:41:04.077Z,101077.84
2022-08-01T16:43:54.442Z,101073.63
2022-08-01T16:46:24.963Z,101078.41
2022-08-01T16:48:53.264Z,101078.81
2022-08-01T16:51:21.306Z,101084.91
2022-08-01T16:53:50.668Z,101077.38
2022-08-01T16:56:18.570Z,101077.19
2022-08-01T16:58:46.562Z,101081.97
2022-08-01T17:01:59.987Z,101083.41
2022-08-01T17:04:02.786Z,101080.97
2022-08-01T17:06:30.823Z,101080.13
2022-08-01T17:09:00.044Z,101083.09
2022-08-01T17:11:28.251Z,101089.06
2022-08-01T17:13:56.055Z,101088.56
2022-08-01T17:16:24.211Z,101092.56
2022-08-01T17:18:52.046Z,101090.91
2022-08-01T17:21:19.954Z,101085.03
2022-08-01T17:23:47.869Z,101089.50
2022-08-01T17:26:16.973Z,101086.06
2022-08-01T17:28:44.801Z,101081.44
2022-08-01T17:31:12.698Z,101091.16
2022-08-01T17:33:45.638Z,101085.56
2022-08-01T17:36:14.956Z,101083.06
2022-08-01T17:38:43.016Z,101084.97
2022-08-01T17:41:11.388Z,101090.50
2022-08-01T17:43:40.679Z,101083.75
2022-08-01T17:46:08.568Z,101089.50
2022-08-01T17:48:36.661Z,101097.78
2022-08-01T17:51:04.731Z,101088.25
2022-08-01T17:53:32.703Z,101093.56
2022-08-01T17:56:01.530Z,101097.69
2022-08-01T17:58:51.490Z,101097.88
2022-08-01T18:01:20.729Z,101100.22
2022-08-01T18:03:49.509Z,101091.81
2022-08-01T18:06:19.930Z,101097.09
2022-08-01T18:08:55.307Z,101097.63
2022-08-01T18:11:27.094Z,101096.63
2022-08-01T18:13:56.335Z,101095.72
2022-08-01T18:16:25.552Z,101102.09
2022-08-01T18:18:53.473Z,101092.78
2022-08-01T18:21:21.295Z,101094.09
2022-08-01T18:23:51.610Z,101097.09
2022-08-01T18:26:20.680Z,101098.81
2022-08-01T18:28:48.630Z,101096.63
2022-08-01T18:31:20.158Z,101099.22
2022-08-01T18:33:49.694Z,101098.16
2022-08-01T18:36:32.975Z,101101.88
2022-08-01T18:39:06.292Z,101110.16
2022-08-01T18:41:39.237Z,101113.56
2022-08-01T18:44:10.214Z,101105.44
2022-08-01T18:46:39.881Z,101113.81
2022-08-01T18:49:12.187Z,101112.63
2022-08-01T18:51:44.572Z,101117.03
2022-08-01T18:54:13.966Z,101115.06
2022-08-01T18:56:43.391Z,101120.28
2022-08-01T18:59:11.942Z,101119.94
2022-08-01T19:01:40.144Z,101124.16
2022-08-01T19:04:11.417Z,101127.41
2022-08-01T19:06:40.258Z,101137.88
2022-08-01T19:09:09.201Z,101139.31
2022-08-01T19:11:37.591Z,101143.97
2022-08-01T19:14:05.435Z,101154.00
2022-08-01T19:16:33.876Z,101151.31
2022-08-01T19:19:05.566Z,101151.06
2022-08-01T19:21:36.371Z,101155.84
2022-08-01T19:24:22.718Z,101145.84
2022-08-01T19:26:55.121Z,101160.91
2022-08-01T19:29:27.550Z,101169.78
2022-08-01T19:32:10.394Z,101171.41
2022-08-01T19:34:50.124Z,101168.88
2022-08-01T19:37:21.995Z,101170.47
2022-08-01T19:39:53.282Z,101167.78
2022-08-01T19:42:24.240Z,101178.16
2022-08-01T19:44:53.289Z,101174.28
2022-08-01T19:47:21.677Z,101180.78
2022-08-01T19:49:49.605Z,101185.28
2022-08-01T19:52:26.481Z,101186.72
2022-08-01T19:54:57.556Z,101188.88
2022-08-01T19:57:28.541Z,101186.50
2022-08-01T20:00:24.023Z,101195.53
2022-08-01T20:02:58.040Z,101188.75
2022-08-01T20:05:26.760Z,101196.31
2022-08-01T20:07:57.566Z,101197.69
2022-08-01T20:10:25.590Z,101210.00
2022-08-01T20:12:54.949Z,101216.00
2022-08-01T20:15:23.622Z,101233.06
2022-08-01T20:17:51.437Z,101228.59
2022-08-01T20:20:19.288Z,101223.97
2022-08-01T20:22:52.067Z,101228.00
2022-08-01T20:25:23.822Z,101232.75
2022-08-01T20:27:51.945Z,101236.50
2022-08-01T20:30:20.016Z,101233.97
2022-08-01T20:32:49.372Z,101230.59
2022-08-01T20:35:27.092Z,101239.53
2022-08-01T20:38:08.147Z,101240.66
2022-08-01T20:40:45.566Z,101246.94
2022-08-01T20:43:14.812Z,101250.50
2022-08-01T20:45:43.519Z,101244.72
2022-08-01T20:48:12.828Z,101253.91
2022-08-01T20:51:00.127Z,101253.38
2022-08-01T20:53:27.923Z,101251.94
2022-08-01T20:56:09.623Z,101259.75
2022-08-01T20:58:58.631Z,101266.44
2022-08-01T21:01:30.908Z,101267.16
2022-08-01T21:04:34.708Z,101267.19
2022-08-01T21:07:14.253Z,101265.31
2022-08-01T21:09:44.257Z,101268.59
2022-08-01T21:12:25.815Z,101273.09
2022-08-01T21:15:05.003Z,101269.94
2022-08-01T21:17:45.382Z,101260.22
2022-08-01T21:20:15.716Z,101263.56
2022-08-01T21:23:05.626Z,101279.28
2022-08-01T21:25:36.529Z,101275.38
2022-08-01T21:28:08.966Z,101283.16
2022-08-01T21:30:38.125Z,101278.13
2022-08-01T21:33:16.002Z,101283.06
2022-08-01T21:35:46.800Z,101280.75
2022-08-01T21:38:19.754Z,101293.91
2022-08-01T21:40:50.465Z,101288.38
2022-08-01T21:43:20.628Z,101294.38
2022-08-01T21:45:57.869Z,101299.69
2022-08-01T21:48:30.838Z,101307.69
2022-08-01T21:51:07.804Z,101305.72
2022-08-01T21:53:50.013Z,101304.13
2022-08-01T21:56:30.598Z,101306.22
2022-08-01T21:59:16.270Z,101299.97
2022-08-01T22:01:53.236Z,101306.06
2022-08-01T22:04:33.174Z,101304.50
2022-08-01T22:07:10.284Z,101311.41
2022-08-01T22:09:40.455Z,101316.25
2022-08-01T22:12:11.593Z,101324.63
2022-08-01T22:14:45.788Z,101322.66
2022-08-01T22:17:22.565Z,101320.31
2022-08-01T22:19:53.964Z,101328.59
2022-08-01T22:22:45.129Z,101332.13
2022-08-01T22:25:13.422Z,101326.84
2022-08-01T22:28:07.868Z,101325.09
2022-08-01T22:30:35.395Z,101331.47
2022-08-01T22:33:15.220Z,101333.44
2022-08-01T22:35:47.088Z,101332.78
2022-08-01T22:38:18.262Z,101330.31
2022-08-01T22:40:51.335Z,101324.47
2022-08-01T22:43:27.295Z,101333.19
2022-08-01T22:46:15.636Z,101324.91
2022-08-01T22:48:50.462Z,101314.66
2022-08-01T22:51:33.000Z,101323.53
2022-08-01T22:54:07.136Z,101333.31
2022-08-01T22:56:39.980Z,101336.66
2022-08-01T22:59:16.259Z,101334.41
2022-08-01T23:01:51.022Z,101346.34
2022-08-01T23:04:33.935Z,101342.16
2022-08-01T23:07:06.936Z,101350.22
2022-08-01T23:09:48.069Z,101338.44
2022-08-01T23:12:24.304Z,101347.81
2022-08-01T23:14:54.687Z,101349.56
2022-08-01T23:17:28.889Z,101345.22
2022-08-01T23:20:00.287Z,101342.69
2022-08-01T23:22:32.153Z,101332.56
2022-08-01T23:25:04.482Z,101341.06
2022-08-01T23:27:51.689Z,101340.91
2022-08-01T23:30:28.744Z,101337.78
2022-08-01T23:32:58.816Z,101336.47
2022-08-01T23:35:28.168Z,101333.44
2022-08-01T23:38:02.480Z,101330.69
2022-08-01T23:40:32.229Z,101331.22
2022-08-01T23:43:01.666Z,101328.28
2022-08-01T23:46:02.220Z,101326.09
2022-08-01T23:48:19.477Z,101323.50
2022-08-01T23:50:47.572Z,101334.88
2022-08-01T23:53:15.406Z,101335.50
2022-08-01T23:55:44.402Z,101331.44
2022-08-01T23:58:12.485Z,101323.78
